sensor_id;sensor_type;location;lat;lon;timestamp;pressure;altitude;pressure_sealevel;temperature;humidity
71145;BME280;58812;47.698;17.726;2023-02-14T00:00:11;102146.56;;;4.62;87.11
71145;BME280;58812;47.698;17.726;2023-02-14T00:02:37;102152.78;;;4.61;87.07
71145;BME280;58812;47.698;17.726;2023-02-14T00:05:02;102144.97;;;4.58;87.43
71145;BME280;58812;47.698;17.726;2023-02-14T00:07:29;102134.47;;;4.54;87.37
71145;BME280;58812;47.698;17.726;2023-02-14T00:09:55;102142.31;;;4.58;87.39
71145;BME280;58812;47.698;17.726;2023-02-14T00:12:20;102140.59;;;4.57;87.30
71145;BME280;58812;47.698;17.726;2023-02-14T00:14:46;102144.97;;;4.58;87.19
71145;BME280;58812;47.698;17.726;2023-02-14T00:17:30;102144.75;;;4.62;86.68
71145;BME280;58812;47.698;17.726;2023-02-14T00:19:55;102141.25;;;4.62;86.82
71145;BME280;58812;47.698;17.726;2023-02-14T00:22:20;102144.84;;;4.61;86.73
71145;BME280;58812;47.698;17.726;2023-02-14T00:24:46;102147.47;;;4.61;86.67
71145;BME280;58812;47.698;17.726;2023-02-14T00:27:11;102143.00;;;4.63;86.53
71145;BME280;58812;47.698;17.726;2023-02-14T00:29:37;102149.81;;;4.68;85.87
71145;BME280;58812;47.698;17.726;2023-02-14T00:32:02;102145.41;;;4.69;85.73
71145;BME280;58812;47.698;17.726;2023-02-14T00:34:28;102144.50;;;4.68;85.75
71145;BME280;58812;47.698;17.726;2023-02-14T00:36:53;102144.59;;;4.67;85.83
71145;BME280;58812;47.698;17.726;2023-02-14T00:39:19;102141.84;;;4.68;85.59
71145;BME280;58812;47.698;17.726;2023-02-14T00:41:45;102142.06;;;4.64;85.94
71145;BME280;58812;47.698;17.726;2023-02-14T00:44:11;102142.84;;;4.66;85.68
71145;BME280;58812;47.698;17.726;2023-02-14T00:46:37;102146.25;;;4.69;85.31
71145;BME280;58812;47.698;17.726;2023-02-14T00:49:03;102147.91;;;4.72;85.28
71145;BME280;58812;47.698;17.726;2023-02-14T00:51:29;102143.00;;;4.63;85.88
71145;BME280;58812;47.698;17.726;2023-02-14T00:53:55;102139.34;;;4.65;85.73
71145;BME280;58812;47.698;17.726;2023-02-14T00:56:20;102140.34;;;4.63;85.88
71145;BME280;58812;47.698;17.726;2023-02-14T00:58:46;102140.34;;;4.63;85.92
71145;BME280;58812;47.698;17.726;2023-02-14T01:01:12;102136.88;;;4.61;86.01
71145;BME280;58812;47.698;17.726;2023-02-14T01:03:37;102134.41;;;4.56;86.23
71145;BME280;58812;47.698;17.726;2023-02-14T01:06:03;102137.00;;;4.58;86.21
71145;BME280;58812;47.698;17.726;2023-02-14T01:08:30;102135.28;;;4.57;86.28
71145;BME280;58812;47.698;17.726;2023-02-14T01:10:56;102123.06;;;4.52;86.48
71145;BME280;58812;47.698;17.726;2023-02-14T01:13:21;102118.47;;;4.56;86.20
71145;BME280;58812;47.698;17.726;2023-02-14T01:15:49;102117.87;;;4.49;86.79
71145;BME280;58812;47.698;17.726;2023-02-14T01:18:17;102116.03;;;4.51;86.56
71145;BME280;58812;47.698;17.726;2023-02-14T01:20:43;102117.94;;;4.48;86.93
71145;BME280;58812;47.698;17.726;2023-02-14T01:23:08;102123.25;;;4.48;86.96
71145;BME280;58812;47.698;17.726;2023-02-14T01:25:37;102123.31;;;4.46;86.83
71145;BME280;58812;47.698;17.726;2023-02-14T01:28:04;102117.00;;;4.49;86.74
71145;BME280;58812;47.698;17.726;2023-02-14T01:30:30;102119.75;;;4.47;86.90
71145;BME280;58812;47.698;17.726;2023-02-14T01:32:55;102109.19;;;4.46;87.00
71145;BME280;58812;47.698;17.726;2023-02-14T01:35:21;102111.09;;;4.42;87.27
71145;BME280;58812;47.698;17.726;2023-02-14T01:37:46;102110.12;;;4.45;87.08
71145;BME280;58812;47.698;17.726;2023-02-14T01:40:12;102103.06;;;4.44;87.15
71145;BME280;58812;47.698;17.726;2023-02-14T01:42:38;102107.66;;;4.40;87.59
71145;BME280;58812;47.698;17.726;2023-02-14T01:45:16;102109.50;;;4.38;87.77
71145;BME280;58812;47.698;17.726;2023-02-14T01:47:43;102098.16;;;4.35;88.03
71145;BME280;58812;47.698;17.726;2023-02-14T01:50:22;102102.62;;;4.33;88.17
71145;BME280;58812;47.698;17.726;2023-02-14T01:52:55;102103.63;;;4.30;88.25
71145;BME280;58812;47.698;17.726;2023-02-14T01:55:23;102112.59;;;4.27;88.48
71145;BME280;58812;47.698;17.726;2023-02-14T01:57:56;102108.25;;;4.25;88.58
71145;BME280;58812;47.698;17.726;2023-02-14T02:00:24;102103.88;;;4.24;88.88
71145;BME280;58812;47.698;17.726;2023-02-14T02:03:08;102095.94;;;4.24;88.52
71145;BME280;58812;47.698;17.726;2023-02-14T02:05:37;102092.50;;;4.22;88.63
71145;BME280;58812;47.698;17.726;2023-02-14T02:08:04;102089.00;;;4.20;88.76
71145;BME280;58812;47.698;17.726;2023-02-14T02:10:29;102092.59;;;4.19;88.88
71145;BME280;58812;47.698;17.726;2023-02-14T02:13:00;102090.00;;;4.17;88.84
71145;BME280;58812;47.698;17.726;2023-02-14T02:15:30;102088.34;;;4.15;88.97
71145;BME280;58812;47.698;17.726;2023-02-14T02:22:03;102084.09;;;4.11;89.20
71145;BME280;58812;47.698;17.726;2023-02-14T02:38:30;102078.34;;;3.99;89.82
71145;BME280;58812;47.698;17.726;2023-02-14T02:46:31;102086.53;;;3.93;89.79
71145;BME280;58812;47.698;17.726;2023-02-14T02:52:23;102080.47;;;3.90;89.93
71145;BME280;58812;47.698;17.726;2023-02-14T02:55:18;102083.19;;;3.88;90.18
71145;BME280;58812;47.698;17.726;2023-02-14T02:57:47;102087.72;;;3.86;90.25
71145;BME280;58812;47.698;17.726;2023-02-14T03:00:15;102083.31;;;3.85;90.14
71145;BME280;58812;47.698;17.726;2023-02-14T03:02:46;102083.31;;;3.85;90.14
71145;BME280;58812;47.698;17.726;2023-02-14T03:05:33;102068.34;;;3.84;90.05
71145;BME280;58812;47.698;17.726;2023-02-14T03:07:59;102074.63;;;3.82;90.31
71145;BME280;58812;47.698;17.726;2023-02-14T03:10:27;102075.59;;;3.79;90.47
71145;BME280;58812;47.698;17.726;2023-02-14T03:29:50;102095.22;;;3.73;90.71
71145;BME280;58812;47.698;17.726;2023-02-14T03:35:24;102083.78;;;3.73;90.76
71145;BME280;58812;47.698;17.726;2023-02-14T03:38:07;102090.91;;;3.71;91.13
71145;BME280;58812;47.698;17.726;2023-02-14T03:40:46;102094.50;;;3.70;91.25
71145;BME280;58812;47.698;17.726;2023-02-14T03:43:21;102094.72;;;3.64;91.61
71145;BME280;58812;47.698;17.726;2023-02-14T03:46:09;102089.31;;;3.67;91.43
71145;BME280;58812;47.698;17.726;2023-02-14T03:48:39;102097.25;;;3.67;91.33
71145;BME280;58812;47.698;17.726;2023-02-14T03:51:08;102091.16;;;3.65;91.56
71145;BME280;58812;47.698;17.726;2023-02-14T03:53:37;102093.00;;;3.63;91.79
71145;BME280;58812;47.698;17.726;2023-02-14T03:58:39;102077.22;;;3.60;92.03
71145;BME280;58812;47.698;17.726;2023-02-14T04:01:22;102075.50;;;3.59;92.17
71145;BME280;58812;47.698;17.726;2023-02-14T04:03:49;102076.41;;;3.58;92.17
71145;BME280;58812;47.698;17.726;2023-02-14T04:06:18;102068.53;;;3.56;92.30
71145;BME280;58812;47.698;17.726;2023-02-14T04:08:44;102072.06;;;3.57;92.26
71145;BME280;58812;47.698;17.726;2023-02-14T04:11:10;102066.84;;;3.54;92.23
71145;BME280;58812;47.698;17.726;2023-02-14T04:13:36;102072.94;;;3.56;92.42
71145;BME280;58812;47.698;17.726;2023-02-14T04:16:02;102068.56;;;3.55;92.53
71145;BME280;58812;47.698;17.726;2023-02-14T04:18:28;102071.22;;;3.55;92.44
71145;BME280;58812;47.698;17.726;2023-02-14T04:21:12;102074.69;;;3.57;92.24
71145;BME280;58812;47.698;17.726;2023-02-14T04:23:37;102064.28;;;3.52;92.57
71145;BME280;58812;47.698;17.726;2023-02-14T04:26:03;102068.72;;;3.52;92.81
71145;BME280;58812;47.698;17.726;2023-02-14T04:28:29;102066.06;;;3.52;92.84
71145;BME280;58812;47.698;17.726;2023-02-14T04:30:55;102058.13;;;3.52;92.79
71145;BME280;58812;47.698;17.726;2023-02-14T04:33:20;102064.28;;;3.52;92.86
71145;BME280;58812;47.698;17.726;2023-02-14T04:35:47;102058.13;;;3.52;92.69
71145;BME280;58812;47.698;17.726;2023-02-14T04:38:12;102060.84;;;3.50;93.13
71145;BME280;58812;47.698;17.726;2023-02-14T04:40:38;102060.00;;;3.48;93.21
71145;BME280;58812;47.698;17.726;2023-02-14T04:43:03;102054.78;;;3.46;93.25
71145;BME280;58812;47.698;17.726;2023-02-14T04:45:29;102051.19;;;3.47;93.23
71145;BME280;58812;47.698;17.726;2023-02-14T04:47:54;102044.25;;;3.45;93.43
71145;BME280;58812;47.698;17.726;2023-02-14T04:50:20;102047.81;;;3.44;93.55
71145;BME280;58812;47.698;17.726;2023-02-14T04:52:47;102061.91;;;3.44;93.58
71145;BME280;58812;47.698;17.726;2023-02-14T04:55:12;102043.41;;;3.43;93.57
71145;BME280;58812;47.698;17.726;2023-02-14T04:57:38;102044.34;;;3.42;93.72
71145;BME280;58812;47.698;17.726;2023-02-14T05:00:04;102047.84;;;3.42;93.74
71145;BME280;58812;47.698;17.726;2023-02-14T05:02:30;102049.72;;;3.40;93.82
71145;BME280;58812;47.698;17.726;2023-02-14T05:04:55;102050.50;;;3.42;93.68
71145;BME280;58812;47.698;17.726;2023-02-14T05:07:20;102049.63;;;3.42;93.72
71145;BME280;58812;47.698;17.726;2023-02-14T05:09:46;102047.06;;;3.40;93.98
71145;BME280;58812;47.698;17.726;2023-02-14T05:12:11;102047.97;;;3.39;93.95
71145;BME280;58812;47.698;17.726;2023-02-14T05:14:37;102052.44;;;3.37;94.13
71145;BME280;58812;47.698;17.726;2023-02-14T05:17:02;102048.09;;;3.36;94.17
71145;BME280;58812;47.698;17.726;2023-02-14T05:19:28;102039.34;;;3.34;94.33
71145;BME280;58812;47.698;17.726;2023-02-14T05:21:53;102036.69;;;3.34;94.37
71145;BME280;58812;47.698;17.726;2023-02-14T05:24:18;102035.84;;;3.34;94.42
71145;BME280;58812;47.698;17.726;2023-02-14T05:26:44;102037.63;;;3.33;94.46
71145;BME280;58812;47.698;17.726;2023-02-14T05:29:09;102044.63;;;3.34;94.47
71145;BME280;58812;47.698;17.726;2023-02-14T05:31:35;102052.56;;;3.34;94.45
71145;BME280;58812;47.698;17.726;2023-02-14T05:34:00;102042.91;;;3.33;94.54
71145;BME280;58812;47.698;17.726;2023-02-14T05:36:26;102048.22;;;3.33;94.50
71145;BME280;58812;47.698;17.726;2023-02-14T05:38:51;102043.87;;;3.31;94.82
71145;BME280;58812;47.698;17.726;2023-02-14T05:41:16;102049.16;;;3.31;94.86
71145;BME280;58812;47.698;17.726;2023-02-14T05:43:42;102046.53;;;3.31;94.95
71145;BME280;58812;47.698;17.726;2023-02-14T05:46:07;102051.88;;;3.29;95.04
71145;BME280;58812;47.698;17.726;2023-02-14T05:48:33;102050.03;;;3.31;95.06
71145;BME280;58812;47.698;17.726;2023-02-14T05:51:05;102050.84;;;3.33;94.95
71145;BME280;58812;47.698;17.726;2023-02-14T05:53:32;102055.31;;;3.31;95.01
71145;BME280;58812;47.698;17.726;2023-02-14T05:55:58;102058.84;;;3.32;95.14
71145;BME280;58812;47.698;17.726;2023-02-14T05:58:23;102055.31;;;3.31;95.17
71145;BME280;58812;47.698;17.726;2023-02-14T06:00:48;102066.84;;;3.30;95.33
71145;BME280;58812;47.698;17.726;2023-02-14T06:03:14;102062.41;;;3.31;95.37
71145;BME280;58812;47.698;17.726;2023-02-14T06:05:39;102062.47;;;3.29;95.47
71145;BME280;58812;47.698;17.726;2023-02-14T06:08:05;102065.13;;;3.29;95.47
71145;BME280;58812;47.698;17.726;2023-02-14T06:10:30;102070.41;;;3.29;95.71
71145;BME280;58812;47.698;17.726;2023-02-14T06:12:56;102069.63;;;3.27;95.81
71145;BME280;58812;47.698;17.726;2023-02-14T06:15:21;102070.41;;;3.29;95.67
71145;BME280;58812;47.698;17.726;2023-02-14T06:17:54;102073.06;;;3.29;95.72
71145;BME280;58812;47.698;17.726;2023-02-14T06:20:20;102069.47;;;3.30;95.60
71145;BME280;58812;47.698;17.726;2023-02-14T06:22:46;102078.34;;;3.29;96.00
71145;BME280;58812;47.698;17.726;2023-02-14T06:25:12;102070.31;;;3.32;95.97
71145;BME280;58812;47.698;17.726;2023-02-14T06:27:38;102074.69;;;3.33;95.67
71145;BME280;58812;47.698;17.726;2023-02-14T06:30:04;102078.25;;;3.32;95.89
71145;BME280;58812;47.698;17.726;2023-02-14T06:32:30;102075.53;;;3.34;95.96
71145;BME280;58812;47.698;17.726;2023-02-14T06:34:55;102072.03;;;3.33;96.01
71145;BME280;58812;47.698;17.726;2023-02-14T06:37:21;102073.75;;;3.34;96.17
71145;BME280;58812;47.698;17.726;2023-02-14T06:39:46;102075.47;;;3.35;96.00
71145;BME280;58812;47.698;17.726;2023-02-14T06:42:11;102076.28;;;3.37;95.94
71145;BME280;58812;47.698;17.726;2023-02-14T06:44:37;102072.75;;;3.38;95.78
71145;BME280;58812;47.698;17.726;2023-02-14T06:47:02;102079.75;;;3.39;95.72
71145;BME280;58812;47.698;17.726;2023-02-14T06:49:28;102074.47;;;3.39;95.73
71145;BME280;58812;47.698;17.726;2023-02-14T06:51:54;102080.56;;;3.41;95.51
71145;BME280;58812;47.698;17.726;2023-02-14T06:54:19;102084.06;;;3.42;95.38
71145;BME280;58812;47.698;17.726;2023-02-14T06:56:45;102077.81;;;3.44;95.40
71145;BME280;58812;47.698;17.726;2023-02-14T06:59:10;102082.97;;;3.47;95.27
71145;BME280;58812;47.698;17.726;2023-02-14T07:01:35;102081.13;;;3.49;95.12
71145;BME280;58812;47.698;17.726;2023-02-14T07:04:01;102088.97;;;3.53;95.00
71145;BME280;58812;47.698;17.726;2023-02-14T07:06:26;102087.97;;;3.55;94.87
71145;BME280;58812;47.698;17.726;2023-02-14T07:08:52;102080.00;;;3.57;94.96
71145;BME280;58812;47.698;17.726;2023-02-14T07:11:17;102092.16;;;3.62;94.72
71145;BME280;58812;47.698;17.726;2023-02-14T07:13:43;102084.13;;;3.64;94.53
71145;BME280;58812;47.698;17.726;2023-02-14T07:16:09;102091.22;;;3.63;94.64
71145;BME280;58812;47.698;17.726;2023-02-14T07:18:34;102091.16;;;3.65;94.38
71145;BME280;58812;47.698;17.726;2023-02-14T07:21:00;102088.44;;;3.66;94.16
71145;BME280;58812;47.698;17.726;2023-02-14T07:23:25;102088.34;;;3.69;94.08
71145;BME280;58812;47.698;17.726;2023-02-14T07:25:51;102090.91;;;3.71;94.00
71145;BME280;58812;47.698;17.726;2023-02-14T07:28:16;102089.84;;;3.77;93.73
71145;BME280;58812;47.698;17.726;2023-02-14T07:30:42;102095.88;;;3.80;93.32
71145;BME280;58812;47.698;17.726;2023-02-14T07:33:07;102087.81;;;3.83;92.85
71145;BME280;58812;47.698;17.726;2023-02-14T07:35:33;102098.16;;;3.89;92.99
71145;BME280;58812;47.698;17.726;2023-02-14T07:37:59;102094.56;;;3.92;92.81
71145;BME280;58812;47.698;17.726;2023-02-14T07:40:25;102090.91;;;3.94;92.40
71145;BME280;58812;47.698;17.726;2023-02-14T07:42:55;102102.19;;;3.99;92.32
71145;BME280;58812;47.698;17.726;2023-02-14T07:45:21;102101.16;;;4.04;92.18
71145;BME280;58812;47.698;17.726;2023-02-14T07:47:48;102101.97;;;4.06;91.96
71145;BME280;58812;47.698;17.726;2023-02-14T07:50:14;102108.06;;;4.08;91.81
71145;BME280;58812;47.698;17.726;2023-02-14T07:52:40;102111.53;;;4.10;91.59
71145;BME280;58812;47.698;17.726;2023-02-14T07:55:06;102107.03;;;4.12;91.52
71145;BME280;58812;47.698;17.726;2023-02-14T07:57:32;102109.53;;;4.15;91.05
71145;BME280;58812;47.698;17.726;2023-02-14T07:59:57;102112.69;;;4.24;91.47
71145;BME280;58812;47.698;17.726;2023-02-14T08:02:23;102107.31;;;4.26;91.15
71145;BME280;58812;47.698;17.726;2023-02-14T08:04:48;102109.62;;;4.35;91.08
71145;BME280;58812;47.698;17.726;2023-02-14T08:07:13;102112.22;;;4.37;90.63
71145;BME280;58812;47.698;17.726;2023-02-14T08:09:39;102129.81;;;4.39;90.32
71145;BME280;58812;47.698;17.726;2023-02-14T08:12:04;102132.31;;;4.42;90.05
71145;BME280;58812;47.698;17.726;2023-02-14T08:14:48;102119.81;;;4.46;89.63
71145;BME280;58812;47.698;17.726;2023-02-14T08:17:14;102125.66;;;4.54;89.78
71145;BME280;58812;47.698;17.726;2023-02-14T08:19:39;102124.69;;;4.57;89.61
71145;BME280;58812;47.698;17.726;2023-02-14T08:22:05;102124.53;;;4.60;89.55
71145;BME280;58812;47.698;17.726;2023-02-14T08:24:31;102129.00;;;4.59;89.37
71145;BME280;58812;47.698;17.726;2023-02-14T08:26:57;102113.88;;;4.61;89.69
71145;BME280;58812;47.698;17.726;2023-02-14T08:29:22;102124.09;;;4.70;89.40
71145;BME280;58812;47.698;17.726;2023-02-14T08:31:48;102136.25;;;4.76;88.99
71145;BME280;58812;47.698;17.726;2023-02-14T08:34:14;102130.69;;;4.82;88.95
71145;BME280;58812;47.698;17.726;2023-02-14T08:36:40;102127.38;;;4.77;89.15
71145;BME280;58812;47.698;17.726;2023-02-14T08:39:07;102126.38;;;4.79;89.01
71145;BME280;58812;47.698;17.726;2023-02-14T08:41:33;102132.41;;;4.83;89.03
71145;BME280;58812;47.698;17.726;2023-02-14T08:43:59;102131.37;;;4.87;88.95
71145;BME280;58812;47.698;17.726;2023-02-14T08:46:25;102125.72;;;4.95;87.74
71145;BME280;58812;47.698;17.726;2023-02-14T08:48:50;102131.31;;;5.09;87.56
71145;BME280;58812;47.698;17.726;2023-02-14T08:51:18;102133.59;;;5.18;86.23
71145;BME280;58812;47.698;17.726;2023-02-14T08:53:43;102139.09;;;5.34;85.50
71145;BME280;58812;47.698;17.726;2023-02-14T08:56:12;102132.78;;;5.36;84.48
71145;BME280;58812;47.698;17.726;2023-02-14T08:58:38;102137.97;;;5.40;83.63
71145;BME280;58812;47.698;17.726;2023-02-14T09:01:12;102133.38;;;5.43;83.46
71145;BME280;58812;47.698;17.726;2023-02-14T09:03:38;102147.44;;;5.45;83.27
71145;BME280;58812;47.698;17.726;2023-02-14T09:06:09;102142.94;;;5.47;82.98
71145;BME280;58812;47.698;17.726;2023-02-14T09:08:36;102139.34;;;5.48;82.59
71145;BME280;58812;47.698;17.726;2023-02-14T09:11:14;102148.63;;;5.58;82.88
71145;BME280;58812;47.698;17.726;2023-02-14T09:13:41;102142.50;;;5.56;82.43
71145;BME280;58812;47.698;17.726;2023-02-14T09:16:08;102143.97;;;5.63;82.06
71145;BME280;58812;47.698;17.726;2023-02-14T09:18:35;102140.78;;;5.76;82.06
71145;BME280;58812;47.698;17.726;2023-02-14T09:21:01;102140.97;;;5.71;81.31
71145;BME280;58812;47.698;17.726;2023-02-14T09:23:26;102141.19;;;5.85;80.95
71145;BME280;58812;47.698;17.726;2023-02-14T09:25:59;102129.72;;;5.85;80.45
71145;BME280;58812;47.698;17.726;2023-02-14T09:28:25;102134.84;;;6.08;80.42
71145;BME280;58812;47.698;17.726;2023-02-14T09:30:51;102143.59;;;6.10;79.74
71145;BME280;58812;47.698;17.726;2023-02-14T09:33:16;102144.41;;;6.12;79.95
71145;BME280;58812;47.698;17.726;2023-02-14T09:35:41;102141.75;;;6.12;78.42
71145;BME280;58812;47.698;17.726;2023-02-14T09:38:09;102139.88;;;6.14;78.71
71145;BME280;58812;47.698;17.726;2023-02-14T09:40:45;102130.19;;;6.13;78.42
71145;BME280;58812;47.698;17.726;2023-02-14T09:43:33;102128.87;;;6.41;83.04
71145;BME280;58812;47.698;17.726;2023-02-14T09:46:03;102136.91;;;6.58;79.00
71145;BME280;58812;47.698;17.726;2023-02-14T09:48:34;102146.97;;;6.52;79.51
71145;BME280;58812;47.698;17.726;2023-02-14T09:51:16;102139.22;;;6.47;78.31
71145;BME280;58812;47.698;17.726;2023-02-14T09:53:46;102138.19;;;6.50;77.82
71145;BME280;58812;47.698;17.726;2023-02-14T10:01:41;102135.06;;;6.95;79.96
71145;BME280;58812;47.698;17.726;2023-02-14T10:04:29;102134.84;;;6.63;76.86
71145;BME280;58812;47.698;17.726;2023-02-14T10:07:26;102130.34;;;6.29;75.90
71145;BME280;58812;47.698;17.726;2023-02-14T10:10:22;102137.47;;;6.46;76.43
71145;BME280;58812;47.698;17.726;2023-02-14T10:12:58;102141.72;;;6.50;77.38
71145;BME280;58812;47.698;17.726;2023-02-14T10:15:45;102136.00;;;6.40;76.72
71145;BME280;58812;47.698;17.726;2023-02-14T10:18:26;102143.94;;;6.59;79.23
71145;BME280;58812;47.698;17.726;2023-02-14T10:20:57;102146.62;;;6.77;79.80
71145;BME280;58812;47.698;17.726;2023-02-14T10:23:34;102146.62;;;6.77;79.91
71145;BME280;58812;47.698;17.726;2023-02-14T10:26:15;102141.06;;;6.45;74.81
71145;BME280;58812;47.698;17.726;2023-02-14T10:28:46;102129.78;;;6.59;75.16
71145;BME280;58812;47.698;17.726;2023-02-14T10:31:36;102139.69;;;6.55;74.43
71145;BME280;58812;47.698;17.726;2023-02-14T10:34:12;102144.88;;;6.94;76.17
71145;BME280;58812;47.698;17.726;2023-02-14T10:44:45;102141.56;;;6.89;77.31
71145;BME280;58812;47.698;17.726;2023-02-14T10:47:33;102141.63;;;6.71;74.77
71145;BME280;58812;47.698;17.726;2023-02-14T10:53:14;102144.38;;;7.89;77.33
71145;BME280;58812;47.698;17.726;2023-02-14T10:56:02;102132.78;;;7.22;73.16
71145;BME280;58812;47.698;17.726;2023-02-14T10:58:33;102135.53;;;7.20;74.06
71145;BME280;58812;47.698;17.726;2023-02-14T11:01:04;102116.66;;;6.90;72.66
71145;BME280;58812;47.698;17.726;2023-02-14T11:03:32;102125.34;;;7.29;72.35
71145;BME280;58812;47.698;17.726;2023-02-14T11:05:59;102130.97;;;7.05;71.42
71145;BME280;58812;47.698;17.726;2023-02-14T11:08:34;102138.28;;;7.19;72.28
71145;BME280;58812;47.698;17.726;2023-02-14T11:13:36;102122.22;;;7.03;70.63
71145;BME280;58812;47.698;17.726;2023-02-14T11:16:08;102121.69;;;6.43;72.38
71145;BME280;58812;47.698;17.726;2023-02-14T11:18:36;102120.84;;;6.60;73.37
71145;BME280;58812;47.698;17.726;2023-02-14T11:21:12;102115.63;;;6.58;72.26
71145;BME280;58812;47.698;17.726;2023-02-14T11:23:42;102117.00;;;6.48;70.98
71145;BME280;58812;47.698;17.726;2023-02-14T11:26:15;102117.72;;;6.69;71.11
71145;BME280;58812;47.698;17.726;2023-02-14T11:28:51;102116.31;;;6.62;70.65
71145;BME280;58812;47.698;17.726;2023-02-14T11:31:43;102106.59;;;6.61;70.60
71145;BME280;58812;47.698;17.726;2023-02-14T11:34:30;102107.00;;;6.53;70.39
71145;BME280;58812;47.698;17.726;2023-02-14T11:36:57;102101.19;;;6.62;70.29
71145;BME280;58812;47.698;17.726;2023-02-14T11:39:31;102095.66;;;6.67;69.92
71145;BME280;58812;47.698;17.726;2023-02-14T11:42:00;102106.69;;;6.59;69.13
71145;BME280;58812;47.698;17.726;2023-02-14T11:44:29;102096.59;;;6.66;69.54
71145;BME280;58812;47.698;17.726;2023-02-14T11:47:17;102100.50;;;6.59;70.19
71145;BME280;58812;47.698;17.726;2023-02-14T11:49:55;102099.47;;;6.61;70.76
71145;BME280;58812;47.698;17.726;2023-02-14T11:52:23;102091.78;;;6.38;70.97
71145;BME280;58812;47.698;17.726;2023-02-14T11:54:52;102105.06;;;6.38;70.14
71145;BME280;58812;47.698;17.726;2023-02-14T11:57:36;102082.69;;;6.78;73.15
71145;BME280;58812;47.698;17.726;2023-02-14T12:00:13;102084.94;;;6.86;71.58
71145;BME280;58812;47.698;17.726;2023-02-14T12:02:44;102082.91;;;6.74;69.15
71145;BME280;58812;47.698;17.726;2023-02-14T12:05:20;102077.44;;;6.77;69.67
71145;BME280;58812;47.698;17.726;2023-02-14T12:08:06;102077.75;;;6.71;70.50
71145;BME280;58812;47.698;17.726;2023-02-14T12:10:36;102092.47;;;6.95;71.21
71145;BME280;58812;47.698;17.726;2023-02-14T12:29:13;102068.78;;;7.23;73.69
71145;BME280;58812;47.698;17.726;2023-02-14T12:31:42;102071.69;;;6.67;71.68
71145;BME280;58812;47.698;17.726;2023-02-14T12:34:10;102071.16;;;6.78;71.54
71145;BME280;58812;47.698;17.726;2023-02-14T12:45:03;102068.94;;;7.20;69.69
71145;BME280;58812;47.698;17.726;2023-02-14T12:47:54;102063.59;;;7.38;69.26
71145;BME280;58812;47.698;17.726;2023-02-14T12:53:29;102057.81;;;7.94;80.22
71145;BME280;58812;47.698;17.726;2023-02-14T12:56:49;102060.37;;;8.12;66.05
71145;BME280;58812;47.698;17.726;2023-02-14T13:04:43;102048.78;;;8.13;65.67
71145;BME280;58812;47.698;17.726;2023-02-14T13:07:28;102045.94;;;8.00;67.70
71145;BME280;58812;47.698;17.726;2023-02-14T13:10:30;102051.78;;;8.22;65.67
71145;BME280;58812;47.698;17.726;2023-02-14T13:13:09;102041.72;;;8.73;67.79
71145;BME280;58812;47.698;17.726;2023-02-14T13:15:44;102051.69;;;8.40;63.72
71145;BME280;58812;47.698;17.726;2023-02-14T13:21:02;102055.84;;;9.20;69.07
71145;BME280;58812;47.698;17.726;2023-02-14T13:23:35;102055.25;;;9.29;60.72
71145;BME280;58812;47.698;17.726;2023-02-14T13:26:20;102046.69;;;8.34;62.47
71145;BME280;58812;47.698;17.726;2023-02-14T13:28:59;102039.16;;;7.79;63.22
71145;BME280;58812;47.698;17.726;2023-02-14T13:31:26;102042.50;;;7.98;64.12
71145;BME280;58812;47.698;17.726;2023-02-14T13:36:49;102043.78;;;8.98;60.47
71145;BME280;58812;47.698;17.726;2023-02-14T13:39:42;102036.19;;;9.49;60.68
71145;BME280;58812;47.698;17.726;2023-02-14T13:42:11;102042.41;;;9.50;59.56
71145;BME280;58812;47.698;17.726;2023-02-14T13:47:24;102046.87;;;8.30;66.90
71145;BME280;58812;47.698;17.726;2023-02-14T13:52:45;102048.97;;;7.45;65.10
71145;BME280;58812;47.698;17.726;2023-02-14T13:55:37;102049.31;;;7.39;65.79
71145;BME280;58812;47.698;17.726;2023-02-14T13:58:16;102045.06;;;7.68;66.08
71145;BME280;58812;47.698;17.726;2023-02-14T14:00:46;102052.91;;;7.87;67.29
71145;BME280;58812;47.698;17.726;2023-02-14T14:10:49;102042.03;;;7.42;67.71
71145;BME280;58812;47.698;17.726;2023-02-14T14:18:54;102047.66;;;6.68;68.59
71145;BME280;58812;47.698;17.726;2023-02-14T14:21:36;102044.78;;;6.73;69.76
71145;BME280;58812;47.698;17.726;2023-02-14T14:24:22;102042.00;;;7.09;70.09
71145;BME280;58812;47.698;17.726;2023-02-14T14:27:15;102039.16;;;7.30;69.92
71145;BME280;58812;47.698;17.726;2023-02-14T14:29:49;102045.50;;;6.77;68.91
71145;BME280;58812;47.698;17.726;2023-02-14T14:32:35;102043.06;;;7.22;68.13
71145;BME280;58812;47.698;17.726;2023-02-14T14:35:03;102030.28;;;6.96;68.88
71145;BME280;58812;47.698;17.726;2023-02-14T14:37:32;102038.19;;;6.63;70.16
71145;BME280;58812;47.698;17.726;2023-02-14T14:40:04;102032.50;;;6.88;69.81
71145;BME280;58812;47.698;17.726;2023-02-14T14:42:35;102032.25;;;6.58;70.64
71145;BME280;58812;47.698;17.726;2023-02-14T14:45:08;102032.50;;;6.53;70.56
71145;BME280;58812;47.698;17.726;2023-02-14T14:47:44;102039.22;;;6.78;69.54
71145;BME280;58812;47.698;17.726;2023-02-14T14:50:23;102026.44;;;6.50;70.48
71145;BME280;58812;47.698;17.726;2023-02-14T14:52:52;102027.47;;;6.47;71.57
71145;BME280;58812;47.698;17.726;2023-02-14T14:55:24;102015.72;;;6.34;70.99
71145;BME280;58812;47.698;17.726;2023-02-14T14:57:52;102017.06;;;6.42;71.68
71145;BME280;58812;47.698;17.726;2023-02-14T15:00:24;102023.16;;;6.62;74.58
71145;BME280;58812;47.698;17.726;2023-02-14T15:05:45;102027.53;;;6.97;71.67
71145;BME280;58812;47.698;17.726;2023-02-14T15:10:55;102028.28;;;7.17;74.97
71145;BME280;58812;47.698;17.726;2023-02-14T15:16:40;102029.47;;;7.11;73.74
71145;BME280;58812;47.698;17.726;2023-02-14T15:21:41;102037.81;;;6.53;70.20